sensor_id;sensor_type;location;lat;lon;timestamp;pressure;altitude;pressure_sealevel;temperature;humidity
19259;BME280;9763;48.780;9.212;2023-02-21T00:00:22;98893.41;;;9.81;45.06
19259;BME280;9763;48.780;9.212;2023-02-21T00:04:04;98892.56;;;9.81;44.88
19259;BME280;9763;48.780;9.212;2023-02-21T00:07:46;98888.25;;;9.80;45.02
19259;BME280;9763;48.780;9.212;2023-02-21T00:11:27;98893.56;;;9.78;44.84
19259;BME280;9763;48.780;9.212;2023-02-21T00:15:09;98896.50;;;9.72;45.11
19259;BME280;9763;48.780;9.212;2023-02-21T00:18:51;98883.06;;;9.64;45.03
19259;BME280;9763;48.780;9.212;2023-02-21T00:22:34;98884.13;;;9.60;45.30
19259;BME280;9763;48.780;9.212;2023-02-21T00:26:17;98882.69;;;9.54;45.53
19259;BME280;9763;48.780;9.212;2023-02-21T00:29:59;98882.78;;;9.53;45.77
19259;BME280;9763;48.780;9.212;2023-02-21T00:33:40;98879.41;;;9.51;45.68
19259;BME280;9763;48.780;9.212;2023-02-21T00:37:21;98879.34;;;9.52;45.54
19259;BME280;9763;48.780;9.212;2023-02-21T00:41:04;98874.28;;;9.49;45.89
19259;BME280;9763;48.780;9.212;2023-02-21T00:44:46;98839.88;;;9.27;45.41
19259;BME280;9763;48.780;9.212;2023-02-21T00:48:28;98854.84;;;9.39;45.82
19259;BME280;9763;48.780;9.212;2023-02-21T00:52:09;98873.09;;;9.55;45.70
19259;BME280;9763;48.780;9.212;2023-02-21T00:55:50;98870.59;;;9.53;45.62
19259;BME280;9763;48.780;9.212;2023-02-21T00:59:33;98865.63;;;9.49;45.47
19259;BME280;9763;48.780;9.212;2023-02-21T01:03:15;98863.50;;;9.39;45.64
19259;BME280;9763;48.780;9.212;2023-02-21T01:06:57;98870.56;;;9.37;46.02
19259;BME280;9763;48.780;9.212;2023-02-21T01:10:39;98859.28;;;9.37;45.87
19259;BME280;9763;48.780;9.212;2023-02-21T01:14:20;98849.81;;;9.36;45.84
19259;BME280;9763;48.780;9.212;2023-02-21T01:18:04;98856.78;;;9.35;45.79
19259;BME280;9763;48.780;9.212;2023-02-21T01:21:45;98858.47;;;9.36;46.24
19259;BME280;9763;48.780;9.212;2023-02-21T01:25:27;98861.81;;;9.38;45.98
19259;BME280;9763;48.780;9.212;2023-02-21T01:29:09;98855.63;;;9.41;45.92
19259;BME280;9763;48.780;9.212;2023-02-21T01:32:51;98860.66;;;9.44;46.02
19259;BME280;9763;48.780;9.212;2023-02-21T01:36:34;98858.22;;;9.41;46.04
19259;BME280;9763;48.780;9.212;2023-02-21T01:40:16;98856.63;;;9.38;46.09
19259;BME280;9763;48.780;9.212;2023-02-21T01:44:00;98862.22;;;9.31;45.91
19259;BME280;9763;48.780;9.212;2023-02-21T01:47:42;98848.75;;;9.23;46.34
19259;BME280;9763;48.780;9.212;2023-02-21T01:51:27;98842.88;;;9.19;46.31
19259;BME280;9763;48.780;9.212;2023-02-21T01:55:13;98828.16;;;9.18;46.46
19259;BME280;9763;48.780;9.212;2023-02-21T01:58:57;98842.94;;;9.18;46.67
19259;BME280;9763;48.780;9.212;2023-02-21T02:02:47;98836.91;;;9.17;46.32
19259;BME280;9763;48.780;9.212;2023-02-21T02:06:31;98835.22;;;9.16;46.57
19259;BME280;9763;48.780;9.212;2023-02-21T02:10:14;98848.25;;;9.16;46.87
19259;BME280;9763;48.780;9.212;2023-02-21T02:14:16;98777.94;;;8.83;46.27
19259;BME280;9763;48.780;9.212;2023-02-21T02:18:07;98828.56;;;9.11;46.76
19259;BME280;9763;48.780;9.212;2023-02-21T02:25:47;98832.34;;;9.05;46.66
19259;BME280;9763;48.780;9.212;2023-02-21T02:29:30;98830.66;;;9.04;46.53
19259;BME280;9763;48.780;9.212;2023-02-21T02:33:35;98803.66;;;8.89;46.62
19259;BME280;9763;48.780;9.212;2023-02-21T02:37:09;98819.78;;;8.96;47.02
19259;BME280;9763;48.780;9.212;2023-02-21T02:40:42;98814.75;;;8.93;46.91
19259;BME280;9763;48.780;9.212;2023-02-21T02:44:14;98816.41;;;8.94;47.24
19259;BME280;9763;48.780;9.212;2023-02-21T02:47:44;98813.91;;;8.92;47.28
19259;BME280;9763;48.780;9.212;2023-02-21T02:51:14;98803.41;;;8.94;47.08
19259;BME280;9763;48.780;9.212;2023-02-21T02:54:42;98806.69;;;8.97;47.26
19259;BME280;9763;48.780;9.212;2023-02-21T02:58:08;98761.38;;;8.69;47.14
19259;BME280;9763;48.780;9.212;2023-02-21T03:01:48;98802.59;;;8.93;46.96
19259;BME280;9763;48.780;9.212;2023-02-21T03:05:36;98814.06;;;8.89;47.22
19259;BME280;9763;48.780;9.212;2023-02-21T03:09:12;98776.44;;;8.62;47.15
19259;BME280;9763;48.780;9.212;2023-02-21T03:12:47;98802.00;;;8.71;47.50
19259;BME280;9763;48.780;9.212;2023-02-21T03:16:19;98816.31;;;8.80;47.19
19259;BME280;9763;48.780;9.212;2023-02-21T03:19:47;98777.78;;;8.53;47.68
19259;BME280;9763;48.780;9.212;2023-02-21T03:23:14;98813.63;;;8.81;47.24
19259;BME280;9763;48.780;9.212;2023-02-21T03:26:43;98821.44;;;8.81;47.17
19259;BME280;9763;48.780;9.212;2023-02-21T03:30:35;98817.16;;;8.80;47.21
19259;BME280;9763;48.780;9.212;2023-02-21T03:33:59;98807.66;;;8.79;47.26
19259;BME280;9763;48.780;9.212;2023-02-21T03:37:30;98817.16;;;8.80;47.37
19259;BME280;9763;48.780;9.212;2023-02-21T03:40:55;98809.66;;;8.74;47.01
19259;BME280;9763;48.780;9.212;2023-02-21T03:44:20;98807.88;;;8.75;47.35
19259;BME280;9763;48.780;9.212;2023-02-21T03:47:45;98816.75;;;8.71;47.28
19259;BME280;9763;48.780;9.212;2023-02-21T03:51:09;98816.88;;;8.69;47.63
19259;BME280;9763;48.780;9.212;2023-02-21T03:54:33;98808.28;;;8.67;47.40
19259;BME280;9763;48.780;9.212;2023-02-21T03:57:57;98808.44;;;8.64;47.40
19259;BME280;9763;48.780;9.212;2023-02-21T04:01:22;98811.03;;;8.64;47.32
19259;BME280;9763;48.780;9.212;2023-02-21T04:04:49;98818.22;;;8.59;47.67
19259;BME280;9763;48.780;9.212;2023-02-21T04:08:16;98810.75;;;8.53;47.53
19259;BME280;9763;48.780;9.212;2023-02-21T04:11:42;98817.78;;;8.51;47.46
19259;BME280;9763;48.780;9.212;2023-02-21T04:15:07;98809.28;;;8.47;47.62
19259;BME280;9763;48.780;9.212;2023-02-21T04:18:31;98813.72;;;8.45;47.93
19259;BME280;9763;48.780;9.212;2023-02-21T04:21:59;98756.53;;;8.09;47.64
19259;BME280;9763;48.780;9.212;2023-02-21T04:25:23;98808.75;;;8.41;47.77
19259;BME280;9763;48.780;9.212;2023-02-21T04:28:53;98816.69;;;8.38;47.68
19259;BME280;9763;48.780;9.212;2023-02-21T04:32:18;98815.09;;;8.35;47.80
19259;BME280;9763;48.780;9.212;2023-02-21T04:35:42;98822.97;;;8.34;48.05
19259;BME280;9763;48.780;9.212;2023-02-21T04:39:18;98824.00;;;8.29;47.78
19259;BME280;9763;48.780;9.212;2023-02-21T04:42:43;98828.44;;;8.27;47.72
19259;BME280;9763;48.780;9.212;2023-02-21T04:46:07;98825.97;;;8.24;47.90
19259;BME280;9763;48.780;9.212;2023-02-21T04:49:31;98824.47;;;8.20;48.15
19259;BME280;9763;48.780;9.212;2023-02-21T04:52:55;98822.84;;;8.18;48.06
19259;BME280;9763;48.780;9.212;2023-02-21T04:56:23;98822.09;;;8.16;48.44
19259;BME280;9763;48.780;9.212;2023-02-21T04:59:54;98818.63;;;8.15;48.45
19259;BME280;9763;48.780;9.212;2023-02-21T05:03:18;98815.28;;;8.13;48.56
19259;BME280;9763;48.780;9.212;2023-02-21T05:06:43;98820.53;;;8.12;48.29
19259;BME280;9763;48.780;9.212;2023-02-21T05:10:07;98811.81;;;8.13;48.27
19259;BME280;9763;48.780;9.212;2023-02-21T05:13:33;98811.06;;;8.11;48.69
19259;BME280;9763;48.780;9.212;2023-02-21T05:16:57;98805.13;;;8.09;48.33
19259;BME280;9763;48.780;9.212;2023-02-21T05:20:21;98796.47;;;8.08;48.42
19259;BME280;9763;48.780;9.212;2023-02-21T05:23:45;98796.63;;;8.05;48.28
19259;BME280;9763;48.780;9.212;2023-02-21T05:27:19;98794.16;;;8.02;48.46
19259;BME280;9763;48.780;9.212;2023-02-21T05:30:44;98805.47;;;8.01;48.96
19259;BME280;9763;48.780;9.212;2023-02-21T05:34:08;98796.75;;;8.02;48.87
19259;BME280;9763;48.780;9.212;2023-02-21T05:37:32;98807.94;;;8.04;48.82
19259;BME280;9763;48.780;9.212;2023-02-21T05:40:56;98806.16;;;8.05;48.55
19259;BME280;9763;48.780;9.212;2023-02-21T05:44:20;98804.47;;;8.04;48.82
19259;BME280;9763;48.780;9.212;2023-02-21T05:47:45;98801.09;;;8.02;48.48
19259;BME280;9763;48.780;9.212;2023-02-21T05:51:09;98809.88;;;7.99;48.59
19259;BME280;9763;48.780;9.212;2023-02-21T05:54:32;98814.31;;;7.97;48.61
19259;BME280;9763;48.780;9.212;2023-02-21T05:57:56;98815.41;;;7.93;48.89
19259;BME280;9763;48.780;9.212;2023-02-21T06:01:20;98810.25;;;7.91;48.94
19259;BME280;9763;48.780;9.212;2023-02-21T06:04:46;98806.81;;;7.91;48.76
19259;BME280;9763;48.780;9.212;2023-02-21T06:08:10;98801.69;;;7.89;48.79
19259;BME280;9763;48.780;9.212;2023-02-21T06:11:37;98796.56;;;7.88;48.70
19259;BME280;9763;48.780;9.212;2023-02-21T06:15:02;98804.50;;;7.85;49.24
19259;BME280;9763;48.780;9.212;2023-02-21T06:18:28;98796.94;;;7.80;49.09
19259;BME280;9763;48.780;9.212;2023-02-21T06:21:54;98786.94;;;7.73;49.34
19259;BME280;9763;48.780;9.212;2023-02-21T06:25:18;98799.28;;;7.68;49.28
19259;BME280;9763;48.780;9.212;2023-02-21T06:28:42;98794.03;;;7.69;49.21
19259;BME280;9763;48.780;9.212;2023-02-21T06:32:05;98808.53;;;7.73;49.35
19259;BME280;9763;48.780;9.212;2023-02-21T06:35:30;98801.44;;;7.77;49.55
19259;BME280;9763;48.780;9.212;2023-02-21T06:38:56;98810.06;;;7.77;49.60
19259;BME280;9763;48.780;9.212;2023-02-21T06:42:20;98812.59;;;7.79;49.69
19259;BME280;9763;48.780;9.212;2023-02-21T06:45:44;98813.38;;;7.81;49.47
19259;BME280;9763;48.780;9.212;2023-02-21T06:49:08;98808.13;;;7.82;49.51
19259;BME280;9763;48.780;9.212;2023-02-21T06:52:33;98817.66;;;7.82;49.41
19259;BME280;9763;48.780;9.212;2023-02-21T06:55:58;98815.91;;;7.82;49.27
19259;BME280;9763;48.780;9.212;2023-02-21T06:59:22;98818.34;;;7.85;49.64
19259;BME280;9763;48.780;9.212;2023-02-21T07:02:46;98820.81;;;7.88;49.56
19259;BME280;9763;48.780;9.212;2023-02-21T07:06:10;98813.00;;;7.88;49.26
19259;BME280;9763;48.780;9.212;2023-02-21T07:09:34;98819.97;;;7.88;49.74
19259;BME280;9763;48.780;9.212;2023-02-21T07:12:59;98815.59;;;7.88;49.56
19259;BME280;9763;48.780;9.212;2023-02-21T07:16:23;98818.13;;;7.90;49.45
19259;BME280;9763;48.780;9.212;2023-02-21T07:19:47;98817.94;;;7.94;49.69
19259;BME280;9763;48.780;9.212;2023-02-21T07:23:11;98821.19;;;7.98;49.49
19259;BME280;9763;48.780;9.212;2023-02-21T07:26:35;98817.47;;;8.04;49.73
19259;BME280;9763;48.780;9.212;2023-02-21T07:30:01;98815.41;;;8.10;49.77
19259;BME280;9763;48.780;9.212;2023-02-21T07:33:26;98812.53;;;8.16;49.45
19259;BME280;9763;48.780;9.212;2023-02-21T07:36:50;98806.28;;;8.20;49.72
19259;BME280;9763;48.780;9.212;2023-02-21T07:40:14;98815.50;;;8.26;49.44
19259;BME280;9763;48.780;9.212;2023-02-21T07:43:38;98813.53;;;8.31;49.71
19259;BME280;9763;48.780;9.212;2023-02-21T07:47:03;98812.41;;;8.37;49.69
19259;BME280;9763;48.780;9.212;2023-02-21T07:50:27;98808.59;;;8.44;49.55
19259;BME280;9763;48.780;9.212;2023-02-21T07:53:51;98818.69;;;8.50;49.65
19259;BME280;9763;48.780;9.212;2023-02-21T07:57:16;98814.97;;;8.55;49.96
19259;BME280;9763;48.780;9.212;2023-02-21T08:00:40;98812.88;;;8.62;49.76
19259;BME280;9763;48.780;9.212;2023-02-21T08:04:06;98819.47;;;8.69;50.29
19259;BME280;9763;48.780;9.212;2023-02-21T08:07:30;98819.00;;;8.78;49.84
19259;BME280;9763;48.780;9.212;2023-02-21T08:10:54;98818.66;;;8.84;49.81
19259;BME280;9763;48.780;9.212;2023-02-21T08:14:18;98814.91;;;8.90;50.04
19259;BME280;9763;48.780;9.212;2023-02-21T08:17:42;98818.88;;;8.97;50.08
19259;BME280;9763;48.780;9.212;2023-02-21T08:21:09;98816.88;;;9.02;50.26
19259;BME280;9763;48.780;9.212;2023-02-21T08:24:33;98820.06;;;9.07;50.34
19259;BME280;9763;48.780;9.212;2023-02-21T08:27:57;98806.97;;;9.09;50.58
19259;BME280;9763;48.780;9.212;2023-02-21T08:31:21;98827.03;;;10.02;51.15
19259;BME280;9763;48.780;9.212;2023-02-21T08:34:45;98821.38;;;11.98;52.33
19259;BME280;9763;48.780;9.212;2023-02-21T08:38:11;98812.38;;;14.17;50.48
19259;BME280;9763;48.780;9.212;2023-02-21T08:41:36;98802.00;;;15.86;48.53
19259;BME280;9763;48.780;9.212;2023-02-21T08:45:01;98813.19;;;16.42;47.51
19259;BME280;9763;48.780;9.212;2023-02-21T08:48:25;98814.53;;;16.05;47.20
19259;BME280;9763;48.780;9.212;2023-02-21T08:51:49;98807.91;;;15.45;47.27
19259;BME280;9763;48.780;9.212;2023-02-21T08:55:15;98799.03;;;15.01;47.27
19259;BME280;9763;48.780;9.212;2023-02-21T08:58:39;98806.38;;;14.74;47.22
19259;BME280;9763;48.780;9.212;2023-02-21T09:02:03;98802.03;;;14.97;47.30
19259;BME280;9763;48.780;9.212;2023-02-21T09:05:34;98804.28;;;16.23;47.50
19259;BME280;9763;48.780;9.212;2023-02-21T09:08:59;98798.47;;;17.23;46.29
19259;BME280;9763;48.780;9.212;2023-02-21T09:12:24;98794.66;;;17.06;45.63
19259;BME280;9763;48.780;9.212;2023-02-21T09:15:48;98802.75;;;16.52;45.85
19259;BME280;9763;48.780;9.212;2023-02-21T09:19:12;98802.09;;;15.96;46.20
19259;BME280;9763;48.780;9.212;2023-02-21T09:22:37;98797.38;;;15.45;46.42
19259;BME280;9763;48.780;9.212;2023-02-21T09:26:01;98801.44;;;15.04;46.72
19259;BME280;9763;48.780;9.212;2023-02-21T09:29:27;98798.88;;;14.69;46.90
19259;BME280;9763;48.780;9.212;2023-02-21T09:33:07;98801.88;;;14.41;47.18
19259;BME280;9763;48.780;9.212;2023-02-21T09:36:35;98788.53;;;14.20;47.33
19259;BME280;9763;48.780;9.212;2023-02-21T09:39:59;98795.84;;;14.04;47.30
19259;BME280;9763;48.780;9.212;2023-02-21T09:43:30;98793.16;;;13.93;47.90
19259;BME280;9763;48.780;9.212;2023-02-21T09:47:00;98788.38;;;13.87;47.41
19259;BME280;9763;48.780;9.212;2023-02-21T09:50:28;98789.13;;;14.48;47.85
19259;BME280;9763;48.780;9.212;2023-02-21T09:53:56;98787.00;;;16.62;47.94
19259;BME280;9763;48.780;9.212;2023-02-21T09:57:21;98769.44;;;19.17;46.12
19259;BME280;9763;48.780;9.212;2023-02-21T10:00:45;98771.41;;;21.54;44.14
19259;BME280;9763;48.780;9.212;2023-02-21T10:04:19;98757.25;;;23.73;42.76
19259;BME280;9763;48.780;9.212;2023-02-21T10:07:53;98744.59;;;25.62;40.89
19259;BME280;9763;48.780;9.212;2023-02-21T10:11:29;98741.09;;;27.17;40.06
19259;BME280;9763;48.780;9.212;2023-02-21T10:15:18;98742.81;;;28.47;38.71
19259;BME280;9763;48.780;9.212;2023-02-21T10:18:51;98734.84;;;29.57;37.98
19259;BME280;9763;48.780;9.212;2023-02-21T10:22:23;98735.31;;;30.55;37.33
19259;BME280;9763;48.780;9.212;2023-02-21T10:25:50;98723.03;;;31.27;36.77
19259;BME280;9763;48.780;9.212;2023-02-21T10:29:21;98724.28;;;31.79;35.67
19259;BME280;9763;48.780;9.212;2023-02-21T10:32:47;98730.09;;;32.25;35.32
19259;BME280;9763;48.780;9.212;2023-02-21T10:36:15;98713.94;;;32.36;34.54
19259;BME280;9763;48.780;9.212;2023-02-21T10:39:48;98713.13;;;32.47;33.65
19259;BME280;9763;48.780;9.212;2023-02-21T10:43:16;98724.91;;;32.76;33.60
19259;BME280;9763;48.780;9.212;2023-02-21T10:46:44;98727.28;;;32.84;32.57
19259;BME280;9763;48.780;9.212;2023-02-21T10:50:10;98724.91;;;32.76;32.47
19259;BME280;9763;48.780;9.212;2023-02-21T10:53:37;98719.41;;;32.71;32.03
19259;BME280;9763;48.780;9.212;2023-02-21T10:57:04;98715.16;;;32.75;31.85
19259;BME280;9763;48.780;9.212;2023-02-21T11:00:34;98711.63;;;32.86;31.60
19259;BME280;9763;48.780;9.212;2023-02-21T11:04:00;98705.16;;;32.99;31.27
19259;BME280;9763;48.780;9.212;2023-02-21T11:07:25;98696.44;;;33.20;30.78
19259;BME280;9763;48.780;9.212;2023-02-21T11:10:54;98690.06;;;33.38;30.58
19259;BME280;9763;48.780;9.212;2023-02-21T11:14:24;98691.31;;;33.47;30.15
19259;BME280;9763;48.780;9.212;2023-02-21T11:18:05;98681.94;;;33.38;29.59
19259;BME280;9763;48.780;9.212;2023-02-21T11:21:30;98689.63;;;33.30;29.56
19259;BME280;9763;48.780;9.212;2023-02-21T11:25:02;98680.19;;;33.20;29.95
19259;BME280;9763;48.780;9.212;2023-02-21T11:28:27;98669.63;;;33.07;29.59
19259;BME280;9763;48.780;9.212;2023-02-21T11:31:54;98660.47;;;32.97;29.41
19259;BME280;9763;48.780;9.212;2023-02-21T11:35:25;98650.94;;;32.94;29.41
19259;BME280;9763;48.780;9.212;2023-02-21T11:39:03;98644.09;;;33.03;29.18
19259;BME280;9763;48.780;9.212;2023-02-21T11:42:30;98642.00;;;33.05;29.17
19259;BME280;9763;48.780;9.212;2023-02-21T11:46:12;98635.84;;;33.10;28.92
19259;BME280;9763;48.780;9.212;2023-02-21T11:49:48;98627.88;;;33.03;28.56
19259;BME280;9763;48.780;9.212;2023-02-21T11:53:19;98618.00;;;32.85;28.62
19259;BME280;9763;48.780;9.212;2023-02-21T11:56:55;98617.69;;;32.47;28.11
19259;BME280;9763;48.780;9.212;2023-02-21T12:00:29;98605.84;;;31.83;28.13
19259;BME280;9763;48.780;9.212;2023-02-21T12:04:29;98599.94;;;31.14;28.08
19259;BME280;9763;48.780;9.212;2023-02-21T12:08:23;98600.81;;;30.47;28.10
19259;BME280;9763;48.780;9.212;2023-02-21T12:12:01;98596.38;;;29.85;28.13
19259;BME280;9763;48.780;9.212;2023-02-21T12:15:47;98586.06;;;28.99;28.04
19259;BME280;9763;48.780;9.212;2023-02-21T12:19:36;98588.09;;;28.13;28.41
19259;BME280;9763;48.780;9.212;2023-02-21T12:23:15;98570.41;;;27.24;29.19
19259;BME280;9763;48.780;9.212;2023-02-21T12:26:51;98573.03;;;26.36;29.51
19259;BME280;9763;48.780;9.212;2023-02-21T12:30:32;98561.16;;;25.46;30.51
19259;BME280;9763;48.780;9.212;2023-02-21T12:34:09;98556.63;;;24.60;31.12
19259;BME280;9763;48.780;9.212;2023-02-21T12:37:45;98563.41;;;23.81;32.11
19259;BME280;9763;48.780;9.212;2023-02-21T12:45:16;98547.28;;;22.67;32.52
19259;BME280;9763;48.780;9.212;2023-02-21T12:48:48;98540.75;;;22.31;32.96
19259;BME280;9763;48.780;9.212;2023-02-21T12:52:16;98538.13;;;21.98;33.46
19259;BME280;9763;48.780;9.212;2023-02-21T12:55:45;98524.53;;;21.69;33.54
19259;BME280;9763;48.780;9.212;2023-02-21T12:59:17;98521.22;;;21.42;33.97
19259;BME280;9763;48.780;9.212;2023-02-21T13:02:52;98507.75;;;21.19;34.13
19259;BME280;9763;48.780;9.212;2023-02-21T13:06:22;98508.88;;;21.01;34.22
19259;BME280;9763;48.780;9.212;2023-02-21T13:09:52;98503.38;;;20.86;34.49
19259;BME280;9763;48.780;9.212;2023-02-21T13:13:21;98494.88;;;20.74;34.36
19259;BME280;9763;48.780;9.212;2023-02-21T13:16:51;98485.06;;;20.67;34.85
19259;BME280;9763;48.780;9.212;2023-02-21T13:20:19;98477.91;;;20.59;34.57
19259;BME280;9763;48.780;9.212;2023-02-21T13:27:54;98466.25;;;20.44;34.92
19259;BME280;9763;48.780;9.212;2023-02-21T13:31:23;98465.09;;;20.38;35.13
19259;BME280;9763;48.780;9.212;2023-02-21T13:34:57;98461.88;;;20.35;35.06
19259;BME280;9763;48.780;9.212;2023-02-21T13:38:22;98457.06;;;20.30;35.01
19259;BME280;9763;48.780;9.212;2023-02-21T13:41:51;98453.91;;;20.27;35.06
19259;BME280;9763;48.780;9.212;2023-02-21T13:45:21;98447.25;;;20.23;35.15
19259;BME280;9763;48.780;9.212;2023-02-21T13:48:45;98435.31;;;20.19;35.61
19259;BME280;9763;48.780;9.212;2023-02-21T13:53:02;98428.53;;;20.16;35.74
19259;BME280;9763;48.780;9.212;2023-02-21T13:56:42;98426.34;;;20.11;35.41
19259;BME280;9763;48.780;9.212;2023-02-21T14:04:58;98414.41;;;20.07;35.64
19259;BME280;9763;48.780;9.212;2023-02-21T14:08:26;98409.25;;;20.06;35.82
19259;BME280;9763;48.780;9.212;2023-02-21T14:11:52;98408.41;;;20.05;35.44
19259;BME280;9763;48.780;9.212;2023-02-21T14:15:18;98386.53;;;19.95;35.75
19259;BME280;9763;48.780;9.212;2023-02-21T14:18:46;98387.72;;;20.01;35.51
19259;BME280;9763;48.780;9.212;2023-02-21T14:22:14;98389.00;;;19.97;35.60
19259;BME280;9763;48.780;9.212;2023-02-21T14:25:40;98389.31;;;19.94;35.45
19259;BME280;9763;48.780;9.212;2023-02-21T14:32:59;98381.34;;;19.86;36.11
19259;BME280;9763;48.780;9.212;2023-02-21T14:36:30;98378.03;;;19.84;35.78
19259;BME280;9763;48.780;9.212;2023-02-21T14:39:57;98382.50;;;19.83;35.76
19259;BME280;9763;48.780;9.212;2023-02-21T14:43:39;98370.56;;;19.79;35.88
19259;BME280;9763;48.780;9.212;2023-02-21T14:47:54;98373.84;;;19.73;36.15
19259;BME280;9763;48.780;9.212;2023-02-21T14:51:46;98364.06;;;19.65;35.88
19259;BME280;9763;48.780;9.212;2023-02-21T14:55:28;98363.84;;;19.59;36.20
19259;BME280;9763;48.780;9.212;2023-02-21T14:59:07;98362.50;;;19.55;36.36
19259;BME280;9763;48.780;9.212;2023-02-21T15:02:49;98359.50;;;19.50;35.91
19259;BME280;9763;48.780;9.212;2023-02-21T15:06:18;98357.13;;;19.47;36.33
19259;BME280;9763;48.780;9.212;2023-02-21T15:09:43;98353.28;;;19.41;36.38
19259;BME280;9763;48.780;9.212;2023-02-21T15:13:21;98348.47;;;19.36;36.14
19259;BME280;9763;48.780;9.212;2023-02-21T15:16:48;98350.91;;;19.30;36.32
19259;BME280;9763;48.780;9.212;2023-02-21T15:20:16;98349.72;;;19.24;36.21
19259;BME280;9763;48.780;9.212;2023-02-21T15:23:41;98346.03;;;19.17;36.87
19259;BME280;9763;48.780;9.212;2023-02-21T15:27:10;98346.78;;;19.10;36.94
19259;BME280;9763;48.780;9.212;2023-02-21T15:30:37;98343.94;;;19.03;36.69
19259;BME280;9763;48.780;9.212;2023-02-21T15:34:03;98341.91;;;18.97;37.05
19259;BME280;9763;48.780;9.212;2023-02-21T15:37:29;98340.88;;;18.90;36.74
19259;BME280;9763;48.780;9.212;2023-02-21T15:41:01;98331.72;;;18.84;36.72
19259;BME280;9763;48.780;9.212;2023-02-21T15:44:30;98315.06;;;18.66;37.48
19259;BME280;9763;48.780;9.212;2023-02-21T15:47:56;98331.47;;;18.69;37.39
19259;BME280;9763;48.780;9.212;2023-02-21T15:51:22;98324.94;;;18.64;36.87
19259;BME280;9763;48.780;9.212;2023-02-21T15:54:47;98329.88;;;18.59;36.95
19259;BME280;9763;48.780;9.212;2023-02-21T15:58:19;98321.69;;;18.52;37.02
19259;BME280;9763;48.780;9.212;2023-02-21T16:01:44;98305.38;;;18.39;37.06
19259;BME280;9763;48.780;9.212;2023-02-21T16:05:22;98323.19;;;18.37;37.37
19259;BME280;9763;48.780;9.212;2023-02-21T16:08:59;98322.44;;;18.27;37.66
19259;BME280;9763;48.780;9.212;2023-02-21T16:12:32;98318.19;;;18.16;37.27
19259;BME280;9763;48.780;9.212;2023-02-21T16:15:59;98328.84;;;18.07;37.41
19259;BME280;9763;48.780;9.212;2023-02-21T16:19:23;98314.03;;;17.96;37.47
19259;BME280;9763;48.780;9.212;2023-02-21T16:22:49;98318.53;;;17.86;38.14
19259;BME280;9763;48.780;9.212;2023-02-21T16:26:30;98329.44;;;17.73;37.61
19259;BME280;9763;48.780;9.212;2023-02-21T16:29:54;98328.78;;;17.61;37.87
19259;BME280;9763;48.780;9.212;2023-02-21T16:33:18;98327.16;;;17.51;37.89
19259;BME280;9763;48.780;9.212;2023-02-21T16:36:42;98330.13;;;17.38;38.01
19259;BME280;9763;48.780;9.212;2023-02-21T16:40:13;98334.88;;;17.25;38.48
19259;BME280;9763;48.780;9.212;2023-02-21T16:43:38;98335.34;;;17.11;38.30
19259;BME280;9763;48.780;9.212;2023-02-21T16:47:02;98319.97;;;16.97;38.26
19259;BME280;9763;48.780;9.212;2023-02-21T16:50:29;98323.03;;;16.82;38.64
19259;BME280;9763;48.780;9.212;2023-02-21T16:53:53;98322.78;;;16.66;38.65
19259;BME280;9763;48.780;9.212;2023-02-21T16:57:17;98332.31;;;16.48;39.05
19259;BME280;9763;48.780;9.212;2023-02-21T17:00:42;98336.44;;;16.31;38.87
19259;BME280;9763;48.780;9.212;2023-02-21T17:04:14;98336.19;;;16.15;39.39
19259;BME280;9763;48.780;9.212;2023-02-21T17:07:38;98333.09;;;16.00;39.32
19259;BME280;9763;48.780;9.212;2023-02-21T17:11:03;98335.13;;;15.87;39.72
19259;BME280;9763;48.780;9.212;2023-02-21T17:14:27;98332.63;;;15.76;39.75
19259;BME280;9763;48.780;9.212;2023-02-21T17:17:52;98336.19;;;15.65;39.43
19259;BME280;9763;48.780;9.212;2023-02-21T17:21:16;98345.84;;;15.55;40.00
19259;BME280;9763;48.780;9.212;2023-02-21T17:24:41;98342.31;;;15.45;39.74
19259;BME280;9763;48.780;9.212;2023-02-21T17:28:05;98345.72;;;15.36;40.12
19259;BME280;9763;48.780;9.212;2023-02-21T17:31:29;98344.72;;;15.27;40.34
19259;BME280;9763;48.780;9.212;2023-02-21T17:34:55;98347.28;;;15.18;39.89
19259;BME280;9763;48.780;9.212;2023-02-21T17:38:18;98353.19;;;15.10;40.48
19259;BME280;9763;48.780;9.212;2023-02-21T17:41:45;98352.88;;;15.03;40.51
19259;BME280;9763;48.780;9.212;2023-02-21T17:45:10;98352.56;;;14.97;40.46
19259;BME280;9763;48.780;9.212;2023-02-21T17:48:34;98351.28;;;14.91;40.82
19259;BME280;9763;48.780;9.212;2023-02-21T17:51:58;98358.69;;;14.86;40.46
19259;BME280;9763;48.780;9.212;2023-02-21T17:55:25;98356.22;;;14.85;41.17
19259;BME280;9763;48.780;9.212;2023-02-21T17:58:50;98358.97;;;14.83;40.61
19259;BME280;9763;48.780;9.212;2023-02-21T18:02:14;98358.97;;;14.83;40.77
19259;BME280;9763;48.780;9.212;2023-02-21T18:05:40;98361.00;;;14.80;40.68
19259;BME280;9763;48.780;9.212;2023-02-21T18:09:05;98358.88;;;14.73;41.35
19259;BME280;9763;48.780;9.212;2023-02-21T18:12:29;98329.97;;;14.53;41.21
19259;BME280;9763;48.780;9.212;2023-02-21T18:15:54;98355.34;;;14.63;41.72
19259;BME280;9763;48.780;9.212;2023-02-21T18:19:18;98353.84;;;14.61;41.69
19259;BME280;9763;48.780;9.212;2023-02-21T18:22:42;98364.34;;;14.61;41.42
19259;BME280;9763;48.780;9.212;2023-02-21T18:26:08;98361.25;;;14.56;41.46
19259;BME280;9763;48.780;9.212;2023-02-21T18:29:31;98361.59;;;14.51;41.84
19259;BME280;9763;48.780;9.212;2023-02-21T18:32:55;98366.41;;;14.46;41.24
19259;BME280;9763;48.780;9.212;2023-02-21T18:36:18;98379.78;;;14.43;41.27
19259;BME280;9763;48.780;9.212;2023-02-21T18:39:42;98371.41;;;14.38;41.92
19259;BME280;9763;48.780;9.212;2023-02-21T18:43:15;98379.78;;;14.32;41.66
19259;BME280;9763;48.780;9.212;2023-02-21T18:46:39;98368.94;;;14.25;41.79
19259;BME280;9763;48.780;9.212;2023-02-21T18:50:07;98374.69;;;14.19;41.67
19259;BME280;9763;48.780;9.212;2023-02-21T18:53:31;98369.91;;;14.13;41.60
19259;BME280;9763;48.780;9.212;2023-02-21T18:56:54;98378.06;;;14.10;41.76
19259;BME280;9763;48.780;9.212;2023-02-21T19:00:22;98374.13;;;14.04;42.42
19259;BME280;9763;48.780;9.212;2023-02-21T19:03:48;98371.75;;;14.01;42.08
19259;BME280;9763;48.780;9.212;2023-02-21T19:07:14;98372.84;;;13.88;42.24
19259;BME280;9763;48.780;9.212;2023-02-21T19:10:39;98374.50;;;13.89;42.54
19259;BME280;9763;48.780;9.212;2023-02-21T19:14:02;98338.91;;;13.64;42.37